sensor_id;sensor_type;location;lat;lon;timestamp;temperature;humidity
19941;DHT22;10132;50.864;5.176;2022-10-16T00:01:53;14.20;99.90
19941;DHT22;10132;50.864;5.176;2022-10-16T00:03:56;14.20;99.90
19941;DHT22;10132;50.864;5.176;2022-10-16T00:06:00;14.20;99.90
19941;DHT22;10132;50.864;5.176;2022-10-16T00:08:03;14.20;99.90
19941;DHT22;10132;50.864;5.176;2022-10-16T00:10:07;14.30;99.90
19941;DHT22;10132;50.864;5.176;2022-10-16T00:12:09;14.30;99.90
19941;DHT22;10132;50.864;5.176;2022-10-16T00:14:13;14.20;99.90
19941;DHT22;10132;50.864;5.176;2022-10-16T00:16:16;14.20;99.90
19941;DHT22;10132;50.864;5.176;2022-10-16T00:18:19;14.20;99.90
19941;DHT22;10132;50.864;5.176;2022-10-16T00:20:21;14.20;99.90
19941;DHT22;10132;50.864;5.176;2022-10-16T00:22:23;14.20;99.90
19941;DHT22;10132;50.864;5.176;2022-10-16T00:24:27;14.20;99.90
19941;DHT22;10132;50.864;5.176;2022-10-16T00:26:30;14.10;99.90
19941;DHT22;10132;50.864;5.176;2022-10-16T00:28:34;14.10;99.90
19941;DHT22;10132;50.864;5.176;2022-10-16T00:30:37;14.10;99.90
19941;DHT22;10132;50.864;5.176;2022-10-16T00:32:40;14.10;99.90
19941;DHT22;10132;50.864;5.176;2022-10-16T00:34:42;14.10;99.90
19941;DHT22;10132;50.864;5.176;2022-10-16T00:36:44;14.10;99.90
19941;DHT22;10132;50.864;5.176;2022-10-16T00:38:46;14.00;99.90
19941;DHT22;10132;50.864;5.176;2022-10-16T00:40:50;14.00;99.90
19941;DHT22;10132;50.864;5.176;2022-10-16T00:42:52;14.00;99.90
19941;DHT22;10132;50.864;5.176;2022-10-16T00:44:56;14.10;99.90
19941;DHT22;10132;50.864;5.176;2022-10-16T00:46:58;14.00;99.90
19941;DHT22;10132;50.864;5.176;2022-10-16T00:49:03;14.10;99.90
19941;DHT22;10132;50.864;5.176;2022-10-16T00:51:07;14.10;99.90
19941;DHT22;10132;50.864;5.176;2022-10-16T00:53:10;14.10;99.90
19941;DHT22;10132;50.864;5.176;2022-10-16T00:55:13;14.10;99.90
19941;DHT22;10132;50.864;5.176;2022-10-16T00:57:17;14.00;99.90
19941;DHT22;10132;50.864;5.176;2022-10-16T00:59:22;14.10;99.90
19941;DHT22;10132;50.864;5.176;2022-10-16T01:01:25;14.00;99.90
19941;DHT22;10132;50.864;5.176;2022-10-16T01:03:30;14.00;99.90
19941;DHT22;10132;50.864;5.176;2022-10-16T01:05:37;14.00;99.90
19941;DHT22;10132;50.864;5.176;2022-10-16T01:07:47;14.00;99.90
19941;DHT22;10132;50.864;5.176;2022-10-16T01:10:02;14.00;99.90
19941;DHT22;10132;50.864;5.176;2022-10-16T01:12:10;14.00;99.90
19941;DHT22;10132;50.864;5.176;2022-10-16T01:14:21;13.90;99.90
19941;DHT22;10132;50.864;5.176;2022-10-16T01:16:30;13.90;99.90
19941;DHT22;10132;50.864;5.176;2022-10-16T01:18:41;13.80;99.90
19941;DHT22;10132;50.864;5.176;2022-10-16T01:20:49;13.90;99.90
19941;DHT22;10132;50.864;5.176;2022-10-16T01:23:09;13.80;99.90
19941;DHT22;10132;50.864;5.176;2022-10-16T01:25:18;13.80;99.90
19941;DHT22;10132;50.864;5.176;2022-10-16T01:27:38;13.80;99.90
19941;DHT22;10132;50.864;5.176;2022-10-16T01:29:49;13.80;99.90
19941;DHT22;10132;50.864;5.176;2022-10-16T01:31:56;13.70;99.90
19941;DHT22;10132;50.864;5.176;2022-10-16T01:34:03;13.70;99.90
19941;DHT22;10132;50.864;5.176;2022-10-16T01:36:11;13.70;99.90
19941;DHT22;10132;50.864;5.176;2022-10-16T01:38:17;13.60;99.90
19941;DHT22;10132;50.864;5.176;2022-10-16T01:40:24;13.60;99.90
19941;DHT22;10132;50.864;5.176;2022-10-16T01:42:31;13.70;99.90
19941;DHT22;10132;50.864;5.176;2022-10-16T01:44:38;13.70;99.90
19941;DHT22;10132;50.864;5.176;2022-10-16T01:46:43;13.70;99.90
19941;DHT22;10132;50.864;5.176;2022-10-16T01:48:48;13.70;99.90
19941;DHT22;10132;50.864;5.176;2022-10-16T01:50:58;13.60;99.90
19941;DHT22;10132;50.864;5.176;2022-10-16T01:53:02;13.60;99.90
19941;DHT22;10132;50.864;5.176;2022-10-16T01:55:08;13.60;99.90
19941;DHT22;10132;50.864;5.176;2022-10-16T01:57:13;13.70;99.90
19941;DHT22;10132;50.864;5.176;2022-10-16T01:59:18;13.60;99.90
19941;DHT22;10132;50.864;5.176;2022-10-16T02:01:25;13.60;99.90
19941;DHT22;10132;50.864;5.176;2022-10-16T02:03:28;13.70;99.90
19941;DHT22;10132;50.864;5.176;2022-10-16T02:05:33;13.80;99.90
19941;DHT22;10132;50.864;5.176;2022-10-16T02:07:36;13.80;99.90
19941;DHT22;10132;50.864;5.176;2022-10-16T02:09:38;13.80;99.90
19941;DHT22;10132;50.864;5.176;2022-10-16T02:11:41;13.70;99.90
19941;DHT22;10132;50.864;5.176;2022-10-16T02:13:46;13.70;99.90
19941;DHT22;10132;50.864;5.176;2022-10-16T02:15:49;13.70;99.90
19941;DHT22;10132;50.864;5.176;2022-10-16T02:17:53;13.70;99.90
19941;DHT22;10132;50.864;5.176;2022-10-16T02:19:56;13.60;99.90
19941;DHT22;10132;50.864;5.176;2022-10-16T02:22:02;13.60;99.90
19941;DHT22;10132;50.864;5.176;2022-10-16T02:24:09;13.60;99.90
19941;DHT22;10132;50.864;5.176;2022-10-16T02:26:17;13.70;99.90
19941;DHT22;10132;50.864;5.176;2022-10-16T02:28:24;13.60;99.90
19941;DHT22;10132;50.864;5.176;2022-10-16T02:30:33;13.70;99.90
19941;DHT22;10132;50.864;5.176;2022-10-16T02:32:39;13.70;99.90
19941;DHT22;10132;50.864;5.176;2022-10-16T02:34:44;13.70;99.90
19941;DHT22;10132;50.864;5.176;2022-10-16T02:36:48;13.70;99.90
19941;DHT22;10132;50.864;5.176;2022-10-16T02:38:50;13.70;99.90
19941;DHT22;10132;50.864;5.176;2022-10-16T02:40:53;13.80;99.90
19941;DHT22;10132;50.864;5.176;2022-10-16T02:42:56;13.70;99.90
19941;DHT22;10132;50.864;5.176;2022-10-16T02:44:58;13.70;99.90
19941;DHT22;10132;50.864;5.176;2022-10-16T02:47:00;13.70;99.90
19941;DHT22;10132;50.864;5.176;2022-10-16T02:49:03;13.70;99.90
19941;DHT22;10132;50.864;5.176;2022-10-16T02:51:06;13.60;99.90
19941;DHT22;10132;50.864;5.176;2022-10-16T02:53:09;13.60;99.90
19941;DHT22;10132;50.864;5.176;2022-10-16T02:55:12;13.50;99.90
19941;DHT22;10132;50.864;5.176;2022-10-16T02:57:14;13.60;99.90
19941;DHT22;10132;50.864;5.176;2022-10-16T02:59:18;13.60;99.90
19941;DHT22;10132;50.864;5.176;2022-10-16T03:01:20;13.60;99.90
19941;DHT22;10132;50.864;5.176;2022-10-16T03:03:22;13.50;99.90
19941;DHT22;10132;50.864;5.176;2022-10-16T03:05:24;13.50;99.90
19941;DHT22;10132;50.864;5.176;2022-10-16T03:07:28;13.60;99.90
19941;DHT22;10132;50.864;5.176;2022-10-16T03:09:30;13.60;99.90
19941;DHT22;10132;50.864;5.176;2022-10-16T03:11:32;13.60;99.90
19941;DHT22;10132;50.864;5.176;2022-10-16T03:13:34;13.50;99.90
19941;DHT22;10132;50.864;5.176;2022-10-16T03:15:37;13.60;99.90
19941;DHT22;10132;50.864;5.176;2022-10-16T03:17:39;13.60;99.90
19941;DHT22;10132;50.864;5.176;2022-10-16T03:19:41;13.50;99.90
19941;DHT22;10132;50.864;5.176;2022-10-16T03:21:43;13.50;99.90
19941;DHT22;10132;50.864;5.176;2022-10-16T03:23:47;13.50;99.90
19941;DHT22;10132;50.864;5.176;2022-10-16T03:25:49;13.50;99.90
19941;DHT22;10132;50.864;5.176;2022-10-16T03:27:52;13.50;99.90
19941;DHT22;10132;50.864;5.176;2022-10-16T03:29:54;13.50;99.90
19941;DHT22;10132;50.864;5.176;2022-10-16T03:31:56;13.50;99.90
19941;DHT22;10132;50.864;5.176;2022-10-16T03:33:58;13.50;99.90
19941;DHT22;10132;50.864;5.176;2022-10-16T03:36:00;13.50;99.90
19941;DHT22;10132;50.864;5.176;2022-10-16T03:38:03;13.50;99.90
19941;DHT22;10132;50.864;5.176;2022-10-16T03:40:08;13.50;99.90
19941;DHT22;10132;50.864;5.176;2022-10-16T03:42:11;13.50;99.90
19941;DHT22;10132;50.864;5.176;2022-10-16T03:44:13;13.50;99.90
19941;DHT22;10132;50.864;5.176;2022-10-16T03:46:15;13.50;99.90
19941;DHT22;10132;50.864;5.176;2022-10-16T03:48:17;13.50;99.90
19941;DHT22;10132;50.864;5.176;2022-10-16T03:50:20;13.50;99.90
19941;DHT22;10132;50.864;5.176;2022-10-16T03:52:22;13.50;99.90
19941;DHT22;10132;50.864;5.176;2022-10-16T03:54:25;13.50;99.90
19941;DHT22;10132;50.864;5.176;2022-10-16T03:56:29;13.50;99.90
19941;DHT22;10132;50.864;5.176;2022-10-16T03:58:32;13.50;99.90
19941;DHT22;10132;50.864;5.176;2022-10-16T04:00:34;13.50;99.90
19941;DHT22;10132;50.864;5.176;2022-10-16T04:02:36;13.50;99.90
19941;DHT22;10132;50.864;5.176;2022-10-16T04:04:39;13.50;99.90
19941;DHT22;10132;50.864;5.176;2022-10-16T04:06:41;13.60;99.90
19941;DHT22;10132;50.864;5.176;2022-10-16T04:08:44;13.60;99.90
19941;DHT22;10132;50.864;5.176;2022-10-16T04:10:46;13.50;99.90
19941;DHT22;10132;50.864;5.176;2022-10-16T04:12:50;13.40;99.90
19941;DHT22;10132;50.864;5.176;2022-10-16T04:14:52;13.40;99.90
19941;DHT22;10132;50.864;5.176;2022-10-16T04:16:55;13.40;99.90
19941;DHT22;10132;50.864;5.176;2022-10-16T04:18:58;13.40;99.90
19941;DHT22;10132;50.864;5.176;2022-10-16T04:21:03;13.40;99.90
19941;DHT22;10132;50.864;5.176;2022-10-16T04:23:05;13.30;99.90
19941;DHT22;10132;50.864;5.176;2022-10-16T04:25:08;13.30;99.90
19941;DHT22;10132;50.864;5.176;2022-10-16T04:27:12;13.30;99.90
19941;DHT22;10132;50.864;5.176;2022-10-16T04:29:15;13.40;99.90
19941;DHT22;10132;50.864;5.176;2022-10-16T04:31:18;13.50;99.90
19941;DHT22;10132;50.864;5.176;2022-10-16T04:33:20;13.40;99.90
19941;DHT22;10132;50.864;5.176;2022-10-16T04:35:22;13.40;99.90
19941;DHT22;10132;50.864;5.176;2022-10-16T04:37:25;13.40;99.90
19941;DHT22;10132;50.864;5.176;2022-10-16T04:39:27;13.40;99.90
19941;DHT22;10132;50.864;5.176;2022-10-16T04:41:29;13.40;99.90
19941;DHT22;10132;50.864;5.176;2022-10-16T04:43:31;13.40;99.90
19941;DHT22;10132;50.864;5.176;2022-10-16T04:45:35;13.40;99.90
19941;DHT22;10132;50.864;5.176;2022-10-16T04:47:38;13.50;99.90
19941;DHT22;10132;50.864;5.176;2022-10-16T04:49:40;13.50;99.90
19941;DHT22;10132;50.864;5.176;2022-10-16T04:51:42;13.40;99.90
19941;DHT22;10132;50.864;5.176;2022-10-16T04:53:44;13.40;99.90
19941;DHT22;10132;50.864;5.176;2022-10-16T04:55:46;13.40;99.90
19941;DHT22;10132;50.864;5.176;2022-10-16T04:57:48;13.40;99.90
19941;DHT22;10132;50.864;5.176;2022-10-16T04:59:51;13.40;99.90
19941;DHT22;10132;50.864;5.176;2022-10-16T05:01:54;13.50;99.90
19941;DHT22;10132;50.864;5.176;2022-10-16T05:03:56;13.40;99.90
19941;DHT22;10132;50.864;5.176;2022-10-16T05:05:58;13.50;99.90
19941;DHT22;10132;50.864;5.176;2022-10-16T05:08:01;13.50;99.90
19941;DHT22;10132;50.864;5.176;2022-10-16T05:10:04;13.50;99.90
19941;DHT22;10132;50.864;5.176;2022-10-16T05:12:06;13.40;99.90
19941;DHT22;10132;50.864;5.176;2022-10-16T05:14:09;13.40;99.90
19941;DHT22;10132;50.864;5.176;2022-10-16T05:16:11;13.40;99.90
19941;DHT22;10132;50.864;5.176;2022-10-16T05:18:15;13.40;99.90
19941;DHT22;10132;50.864;5.176;2022-10-16T05:20:17;13.40;99.90
19941;DHT22;10132;50.864;5.176;2022-10-16T05:22:19;13.30;99.90
19941;DHT22;10132;50.864;5.176;2022-10-16T05:24:21;13.30;99.90
19941;DHT22;10132;50.864;5.176;2022-10-16T05:26:23;13.30;99.90
19941;DHT22;10132;50.864;5.176;2022-10-16T05:28:27;13.30;99.90
19941;DHT22;10132;50.864;5.176;2022-10-16T05:30:29;13.30;99.90
19941;DHT22;10132;50.864;5.176;2022-10-16T05:32:31;13.40;99.90
19941;DHT22;10132;50.864;5.176;2022-10-16T05:34:35;13.40;99.90
19941;DHT22;10132;50.864;5.176;2022-10-16T05:36:37;13.40;99.90
19941;DHT22;10132;50.864;5.176;2022-10-16T05:38:39;13.40;99.90
19941;DHT22;10132;50.864;5.176;2022-10-16T05:40:42;13.40;99.90
19941;DHT22;10132;50.864;5.176;2022-10-16T05:42:44;13.40;99.90
19941;DHT22;10132;50.864;5.176;2022-10-16T05:44:46;13.50;99.90
19941;DHT22;10132;50.864;5.176;2022-10-16T05:46:50;13.50;99.90
19941;DHT22;10132;50.864;5.176;2022-10-16T05:48:52;13.50;99.90
19941;DHT22;10132;50.864;5.176;2022-10-16T05:51:00;13.50;99.90
19941;DHT22;10132;50.864;5.176;2022-10-16T05:53:03;13.40;99.90
19941;DHT22;10132;50.864;5.176;2022-10-16T05:55:06;13.40;99.90
19941;DHT22;10132;50.864;5.176;2022-10-16T05:57:09;13.50;99.90
19941;DHT22;10132;50.864;5.176;2022-10-16T05:59:12;13.40;99.90
19941;DHT22;10132;50.864;5.176;2022-10-16T06:01:16;13.40;99.90
19941;DHT22;10132;50.864;5.176;2022-10-16T06:03:19;13.40;99.90
19941;DHT22;10132;50.864;5.176;2022-10-16T06:05:21;13.40;99.90
19941;DHT22;10132;50.864;5.176;2022-10-16T06:07:25;13.40;99.90
19941;DHT22;10132;50.864;5.176;2022-10-16T06:09:27;13.30;99.90
19941;DHT22;10132;50.864;5.176;2022-10-16T06:11:31;13.30;99.90
19941;DHT22;10132;50.864;5.176;2022-10-16T06:13:34;13.30;99.90
19941;DHT22;10132;50.864;5.176;2022-10-16T06:15:36;13.20;99.90
19941;DHT22;10132;50.864;5.176;2022-10-16T06:17:39;13.20;99.90
19941;DHT22;10132;50.864;5.176;2022-10-16T06:19:41;13.10;99.90
19941;DHT22;10132;50.864;5.176;2022-10-16T06:21:43;13.10;99.90
19941;DHT22;10132;50.864;5.176;2022-10-16T06:23:48;13.20;99.90
19941;DHT22;10132;50.864;5.176;2022-10-16T06:25:50;13.10;99.90
19941;DHT22;10132;50.864;5.176;2022-10-16T06:27:52;13.10;99.90
19941;DHT22;10132;50.864;5.176;2022-10-16T06:29:54;13.20;99.90
19941;DHT22;10132;50.864;5.176;2022-10-16T06:31:56;13.10;99.90
19941;DHT22;10132;50.864;5.176;2022-10-16T06:33:59;13.10;99.90
19941;DHT22;10132;50.864;5.176;2022-10-16T06:36:02;13.10;99.90
19941;DHT22;10132;50.864;5.176;2022-10-16T06:38:04;13.10;99.90
19941;DHT22;10132;50.864;5.176;2022-10-16T06:40:09;13.20;99.90
19941;DHT22;10132;50.864;5.176;2022-10-16T06:42:11;13.10;99.90
19941;DHT22;10132;50.864;5.176;2022-10-16T06:44:13;13.10;99.90
19941;DHT22;10132;50.864;5.176;2022-10-16T06:46:17;13.10;99.90
19941;DHT22;10132;50.864;5.176;2022-10-16T06:48:19;13.20;99.90
19941;DHT22;10132;50.864;5.176;2022-10-16T06:50:22;13.20;99.90
19941;DHT22;10132;50.864;5.176;2022-10-16T06:52:24;13.20;99.90
19941;DHT22;10132;50.864;5.176;2022-10-16T06:54:26;13.20;99.90
19941;DHT22;10132;50.864;5.176;2022-10-16T06:56:31;13.20;99.90
19941;DHT22;10132;50.864;5.176;2022-10-16T06:58:33;13.30;99.90
19941;DHT22;10132;50.864;5.176;2022-10-16T07:00:35;13.30;99.90
19941;DHT22;10132;50.864;5.176;2022-10-16T07:02:37;13.40;99.90
19941;DHT22;10132;50.864;5.176;2022-10-16T07:04:39;13.60;99.90
19941;DHT22;10132;50.864;5.176;2022-10-16T07:06:41;13.70;99.90
19941;DHT22;10132;50.864;5.176;2022-10-16T07:08:45;13.80;99.90
19941;DHT22;10132;50.864;5.176;2022-10-16T07:10:47;14.00;99.90
19941;DHT22;10132;50.864;5.176;2022-10-16T07:12:51;14.10;99.90
19941;DHT22;10132;50.864;5.176;2022-10-16T07:14:53;14.10;99.90
19941;DHT22;10132;50.864;5.176;2022-10-16T07:16:56;14.30;99.90
19941;DHT22;10132;50.864;5.176;2022-10-16T07:19:00;14.20;99.90
19941;DHT22;10132;50.864;5.176;2022-10-16T07:21:06;14.40;99.90
19941;DHT22;10132;50.864;5.176;2022-10-16T07:23:08;14.50;99.90
19941;DHT22;10132;50.864;5.176;2022-10-16T07:25:10;14.40;99.90
19941;DHT22;10132;50.864;5.176;2022-10-16T07:27:12;14.40;99.90
19941;DHT22;10132;50.864;5.176;2022-10-16T07:29:20;14.60;99.90
19941;DHT22;10132;50.864;5.176;2022-10-16T07:31:22;14.70;99.90
19941;DHT22;10132;50.864;5.176;2022-10-16T07:33:25;14.90;99.90
19941;DHT22;10132;50.864;5.176;2022-10-16T07:35:27;15.00;99.90
19941;DHT22;10132;50.864;5.176;2022-10-16T07:37:29;15.10;99.90
19941;DHT22;10132;50.864;5.176;2022-10-16T07:39:31;15.10;99.90
19941;DHT22;10132;50.864;5.176;2022-10-16T07:41:34;15.20;99.90
19941;DHT22;10132;50.864;5.176;2022-10-16T07:43:37;15.20;99.90
19941;DHT22;10132;50.864;5.176;2022-10-16T07:45:48;15.20;99.90
19941;DHT22;10132;50.864;5.176;2022-10-16T07:47:50;15.10;99.90
19941;DHT22;10132;50.864;5.176;2022-10-16T07:49:52;15.20;99.90
19941;DHT22;10132;50.864;5.176;2022-10-16T07:51:54;15.40;99.90
19941;DHT22;10132;50.864;5.176;2022-10-16T07:53:57;15.50;99.90
19941;DHT22;10132;50.864;5.176;2022-10-16T07:55:59;15.60;99.90
19941;DHT22;10132;50.864;5.176;2022-10-16T07:58:01;15.60;99.90
19941;DHT22;10132;50.864;5.176;2022-10-16T08:00:05;15.60;99.90
19941;DHT22;10132;50.864;5.176;2022-10-16T08:02:15;15.70;99.90
19941;DHT22;10132;50.864;5.176;2022-10-16T08:04:17;15.80;99.90
19941;DHT22;10132;50.864;5.176;2022-10-16T08:06:20;15.80;99.90
19941;DHT22;10132;50.864;5.176;2022-10-16T08:08:23;15.90;99.90
19941;DHT22;10132;50.864;5.176;2022-10-16T08:10:26;16.10;99.90
19941;DHT22;10132;50.864;5.176;2022-10-16T08:12:29;16.20;99.90
19941;DHT22;10132;50.864;5.176;2022-10-16T08:14:31;16.20;99.90
19941;DHT22;10132;50.864;5.176;2022-10-16T08:16:33;16.10;99.90
19941;DHT22;10132;50.864;5.176;2022-10-16T08:18:37;16.10;99.90
19941;DHT22;10132;50.864;5.176;2022-10-16T08:20:40;16.10;99.90
19941;DHT22;10132;50.864;5.176;2022-10-16T08:22:42;16.20;99.90
19941;DHT22;10132;50.864;5.176;2022-10-16T08:24:44;16.50;99.90
19941;DHT22;10132;50.864;5.176;2022-10-16T08:26:46;16.90;99.90
19941;DHT22;10132;50.864;5.176;2022-10-16T08:28:49;16.70;99.90
19941;DHT22;10132;50.864;5.176;2022-10-16T08:30:52;16.80;99.90
19941;DHT22;10132;50.864;5.176;2022-10-16T08:32:54;17.10;99.90
19941;DHT22;10132;50.864;5.176;2022-10-16T08:35:00;16.90;99.90
19941;DHT22;10132;50.864;5.176;2022-10-16T08:37:02;16.60;99.90
19941;DHT22;10132;50.864;5.176;2022-10-16T08:39:04;16.50;99.90
19941;DHT22;10132;50.864;5.176;2022-10-16T08:41:46;16.70;99.90
19941;DHT22;10132;50.864;5.176;2022-10-16T08:44:16;16.90;99.90
19941;DHT22;10132;50.864;5.176;2022-10-16T08:46:33;16.80;99.90
19941;DHT22;10132;50.864;5.176;2022-10-16T08:48:44;16.80;99.90
19941;DHT22;10132;50.864;5.176;2022-10-16T08:50:50;16.80;99.90
19941;DHT22;10132;50.864;5.176;2022-10-16T08:52:54;17.00;99.90
19941;DHT22;10132;50.864;5.176;2022-10-16T08:54:57;17.40;99.90
19941;DHT22;10132;50.864;5.176;2022-10-16T08:57:09;17.70;99.90
19941;DHT22;10132;50.864;5.176;2022-10-16T08:59:12;17.70;99.90
19941;DHT22;10132;50.864;5.176;2022-10-16T09:01:16;17.60;99.90
19941;DHT22;10132;50.864;5.176;2022-10-16T09:03:32;17.70;99.90
19941;DHT22;10132;50.864;5.176;2022-10-16T09:06:04;17.80;99.90
19941;DHT22;10132;50.864;5.176;2022-10-16T09:08:12;17.90;99.90
19941;DHT22;10132;50.864;5.176;2022-10-16T09:10:30;18.10;99.90
19941;DHT22;10132;50.864;5.176;2022-10-16T09:12:38;18.00;99.90
19941;DHT22;10132;50.864;5.176;2022-10-16T09:14:57;18.00;99.90
19941;DHT22;10132;50.864;5.176;2022-10-16T09:17:06;18.00;99.90
19941;DHT22;10132;50.864;5.176;2022-10-16T09:19:20;18.00;99.90
19941;DHT22;10132;50.864;5.176;2022-10-16T09:21:29;17.90;99.90
19941;DHT22;10132;50.864;5.176;2022-10-16T09:23:35;18.00;99.90
19941;DHT22;10132;50.864;5.176;2022-10-16T09:25:39;18.20;99.90
19941;DHT22;10132;50.864;5.176;2022-10-16T09:27:47;18.30;99.90
19941;DHT22;10132;50.864;5.176;2022-10-16T09:29:49;18.30;99.90
19941;DHT22;10132;50.864;5.176;2022-10-16T09:31:52;18.50;99.90
19941;DHT22;10132;50.864;5.176;2022-10-16T09:33:59;18.40;99.90
19941;DHT22;10132;50.864;5.176;2022-10-16T09:36:05;18.30;99.90
19941;DHT22;10132;50.864;5.176;2022-10-16T09:38:09;18.50;99.90
19941;DHT22;10132;50.864;5.176;2022-10-16T09:40:26;18.30;99.90
19941;DHT22;10132;50.864;5.176;2022-10-16T09:42:34;18.60;99.90
19941;DHT22;10132;50.864;5.176;2022-10-16T09:44:37;18.90;99.90
19941;DHT22;10132;50.864;5.176;2022-10-16T09:46:40;19.00;99.90
19941;DHT22;10132;50.864;5.176;2022-10-16T09:48:44;18.80;99.90
19941;DHT22;10132;50.864;5.176;2022-10-16T09:50:56;18.80;99.90
19941;DHT22;10132;50.864;5.176;2022-10-16T09:53:08;19.20;99.90
19941;DHT22;10132;50.864;5.176;2022-10-16T09:55:16;18.80;99.90
19941;DHT22;10132;50.864;5.176;2022-10-16T09:57:18;18.40;99.90
19941;DHT22;10132;50.864;5.176;2022-10-16T09:59:22;18.30;99.90
19941;DHT22;10132;50.864;5.176;2022-10-16T10:01:31;18.60;99.90
19941;DHT22;10132;50.864;5.176;2022-10-16T10:03:38;18.70;99.90
19941;DHT22;10132;50.864;5.176;2022-10-16T10:05:41;18.70;99.90
19941;DHT22;10132;50.864;5.176;2022-10-16T10:07:56;18.60;99.90
19941;DHT22;10132;50.864;5.176;2022-10-16T10:10:00;18.80;99.90
19941;DHT22;10132;50.864;5.176;2022-10-16T10:12:05;18.70;99.90
19941;DHT22;10132;50.864;5.176;2022-10-16T10:14:16;18.80;99.90
19941;DHT22;10132;50.864;5.176;2022-10-16T10:16:23;18.70;99.90
19941;DHT22;10132;50.864;5.176;2022-10-16T10:18:26;18.60;99.90
19941;DHT22;10132;50.864;5.176;2022-10-16T10:20:30;18.90;99.90
19941;DHT22;10132;50.864;5.176;2022-10-16T10:22:41;19.30;99.90
19941;DHT22;10132;50.864;5.176;2022-10-16T10:24:45;19.20;99.90
19941;DHT22;10132;50.864;5.176;2022-10-16T10:27:04;19.10;99.90
19941;DHT22;10132;50.864;5.176;2022-10-16T10:29:18;19.40;99.90
19941;DHT22;10132;50.864;5.176;2022-10-16T10:31:28;19.20;99.90
19941;DHT22;10132;50.864;5.176;2022-10-16T10:33:40;18.70;99.90
19941;DHT22;10132;50.864;5.176;2022-10-16T10:35:47;18.30;99.90
19941;DHT22;10132;50.864;5.176;2022-10-16T10:38:10;18.20;99.90
19941;DHT22;10132;50.864;5.176;2022-10-16T10:40:28;18.30;99.90
19941;DHT22;10132;50.864;5.176;2022-10-16T10:42:39;18.20;99.90
19941;DHT22;10132;50.864;5.176;2022-10-16T10:45:14;18.40;99.90
19941;DHT22;10132;50.864;5.176;2022-10-16T10:47:26;18.60;99.90
19941;DHT22;10132;50.864;5.176;2022-10-16T10:49:48;18.70;99.90
19941;DHT22;10132;50.864;5.176;2022-10-16T10:52:01;18.90;99.90
19941;DHT22;10132;50.864;5.176;2022-10-16T10:54:12;19.20;99.90
19941;DHT22;10132;50.864;5.176;2022-10-16T10:56:28;19.20;99.90
19941;DHT22;10132;50.864;5.176;2022-10-16T10:58:56;19.60;99.90
19941;DHT22;10132;50.864;5.176;2022-10-16T11:01:06;19.30;99.90
19941;DHT22;10132;50.864;5.176;2022-10-16T11:03:24;19.10;99.90
19941;DHT22;10132;50.864;5.176;2022-10-16T11:05:38;19.20;99.90
19941;DHT22;10132;50.864;5.176;2022-10-16T11:07:47;19.30;99.90
19941;DHT22;10132;50.864;5.176;2022-10-16T11:09:53;19.20;99.90
19941;DHT22;10132;50.864;5.176;2022-10-16T11:11:59;19.30;99.90
19941;DHT22;10132;50.864;5.176;2022-10-16T11:14:09;19.40;99.90
19941;DHT22;10132;50.864;5.176;2022-10-16T11:16:16;19.40;99.90
19941;DHT22;10132;50.864;5.176;2022-10-16T11:18:22;19.60;99.90
19941;DHT22;10132;50.864;5.176;2022-10-16T11:20:27;20.00;99.90
19941;DHT22;10132;50.864;5.176;2022-10-16T11:22:34;20.10;99.90
19941;DHT22;10132;50.864;5.176;2022-10-16T11:24:45;20.10;99.90
19941;DHT22;10132;50.864;5.176;2022-10-16T11:26:49;19.80;99.90
19941;DHT22;10132;50.864;5.176;2022-10-16T11:28:54;19.90;99.90
19941;DHT22;10132;50.864;5.176;2022-10-16T11:31:05;20.40;99.90
19941;DHT22;10132;50.864;5.176;2022-10-16T11:33:25;20.70;99.90
19941;DHT22;10132;50.864;5.176;2022-10-16T11:35:37;20.50;99.90
19941;DHT22;10132;50.864;5.176;2022-10-16T11:37:43;20.00;99.90
19941;DHT22;10132;50.864;5.176;2022-10-16T11:39:46;19.60;99.90
19941;DHT22;10132;50.864;5.176;2022-10-16T11:41:51;19.30;99.90
19941;DHT22;10132;50.864;5.176;2022-10-16T11:44:06;19.40;99.90
19941;DHT22;10132;50.864;5.176;2022-10-16T11:46:16;19.60;99.90
19941;DHT22;10132;50.864;5.176;2022-10-16T11:48:25;20.30;99.90
19941;DHT22;10132;50.864;5.176;2022-10-16T11:50:33;21.00;99.90
19941;DHT22;10132;50.864;5.176;2022-10-16T11:52:40;20.60;99.90
19941;DHT22;10132;50.864;5.176;2022-10-16T11:54:49;20.10;99.90
19941;DHT22;10132;50.864;5.176;2022-10-16T11:57:01;19.70;99.90
19941;DHT22;10132;50.864;5.176;2022-10-16T11:59:07;19.70;99.90
19941;DHT22;10132;50.864;5.176;2022-10-16T12:01:20;19.60;99.90
19941;DHT22;10132;50.864;5.176;2022-10-16T12:03:28;19.20;99.90
19941;DHT22;10132;50.864;5.176;2022-10-16T12:05:42;19.90;99.90
19941;DHT22;10132;50.864;5.176;2022-10-16T12:07:59;20.10;99.90
19941;DHT22;10132;50.864;5.176;2022-10-16T12:10:11;20.50;99.90
19941;DHT22;10132;50.864;5.176;2022-10-16T12:12:24;20.70;99.90
19941;DHT22;10132;50.864;5.176;2022-10-16T12:14:39;21.00;99.90
19941;DHT22;10132;50.864;5.176;2022-10-16T12:16:53;20.80;99.90
19941;DHT22;10132;50.864;5.176;2022-10-16T12:19:11;20.50;99.90
19941;DHT22;10132;50.864;5.176;2022-10-16T12:21:15;20.20;99.90
19941;DHT22;10132;50.864;5.176;2022-10-16T12:23:20;20.50;99.90
19941;DHT22;10132;50.864;5.176;2022-10-16T12:25:26;20.80;99.90
19941;DHT22;10132;50.864;5.176;2022-10-16T12:27:31;20.70;99.90
19941;DHT22;10132;50.864;5.176;2022-10-16T12:29:36;20.70;99.90
19941;DHT22;10132;50.864;5.176;2022-10-16T12:31:43;21.10;99.90
19941;DHT22;10132;50.864;5.176;2022-10-16T12:33:58;21.20;99.90
19941;DHT22;10132;50.864;5.176;2022-10-16T12:36:03;21.40;99.90
19941;DHT22;10132;50.864;5.176;2022-10-16T12:38:16;21.60;99.90
19941;DHT22;10132;50.864;5.176;2022-10-16T12:40:27;21.40;99.90
19941;DHT22;10132;50.864;5.176;2022-10-16T12:42:34;21.30;99.90
19941;DHT22;10132;50.864;5.176;2022-10-16T12:44:37;21.40;99.90
19941;DHT22;10132;50.864;5.176;2022-10-16T12:46:40;21.40;99.90
19941;DHT22;10132;50.864;5.176;2022-10-16T12:48:44;21.20;99.90
19941;DHT22;10132;50.864;5.176;2022-10-16T12:50:49;21.00;99.90
19941;DHT22;10132;50.864;5.176;2022-10-16T12:52:51;21.00;99.90
19941;DHT22;10132;50.864;5.176;2022-10-16T12:54:56;20.90;99.90
19941;DHT22;10132;50.864;5.176;2022-10-16T12:57:14;20.70;99.90
19941;DHT22;10132;50.864;5.176;2022-10-16T12:59:28;20.80;99.90
19941;DHT22;10132;50.864;5.176;2022-10-16T13:01:42;20.80;99.90
19941;DHT22;10132;50.864;5.176;2022-10-16T13:04:13;20.80;99.90
19941;DHT22;10132;50.864;5.176;2022-10-16T13:06:28;20.90;99.90
19941;DHT22;10132;50.864;5.176;2022-10-16T13:08:44;20.90;99.90
19941;DHT22;10132;50.864;5.176;2022-10-16T13:11:00;21.00;99.90
19941;DHT22;10132;50.864;5.176;2022-10-16T13:13:22;20.80;99.90
19941;DHT22;10132;50.864;5.176;2022-10-16T13:15:39;20.60;99.90